sensor_id;sensor_type;location;lat;lon;timestamp;pressure;altitude;pressure_sealevel;temperature;humidity
23899;BME280;20544;50.018;20.010;2024-01-11T00:01:22;99936.89;;;-8.19;100.00
23899;BME280;20544;50.018;20.010;2024-01-11T00:04:51;99925.86;;;-8.24;100.00
23899;BME280;20544;50.018;20.010;2024-01-11T00:08:21;99923.20;;;-8.21;100.00
23899;BME280;20544;50.018;20.010;2024-01-11T00:12:12;99905.30;;;-8.26;100.00
23899;BME280;20544;50.018;20.010;2024-01-11T00:15:51;99927.45;;;-8.19;100.00
23899;BME280;20544;50.018;20.010;2024-01-11T00:19:09;99921.52;;;-8.22;100.00
23899;BME280;20544;50.018;20.010;2024-01-11T00:22:27;99910.41;;;-8.24;100.00
23899;BME280;20544;50.018;20.010;2024-01-11T00:25:44;99911.23;;;-8.24;100.00
23899;BME280;20544;50.018;20.010;2024-01-11T00:29:01;99903.42;;;-8.19;100.00
23899;BME280;20544;50.018;20.010;2024-01-11T00:32:22;99898.13;;;-8.13;100.00
23899;BME280;20544;50.018;20.010;2024-01-11T00:35:39;99895.45;;;-8.08;100.00
23899;BME280;20544;50.018;20.010;2024-01-11T00:38:57;99892.01;;;-8.09;100.00
23899;BME280;20544;50.018;20.010;2024-01-11T00:42:16;99890.25;;;-8.07;100.00
23899;BME280;20544;50.018;20.010;2024-01-11T00:45:33;99895.26;;;-8.01;100.00
23899;BME280;20544;50.018;20.010;2024-01-11T00:48:51;99890.16;;;-8.02;100.00
23899;BME280;20544;50.018;20.010;2024-01-11T00:52:15;99885.77;;;-7.99;100.00
23899;BME280;20544;50.018;20.010;2024-01-11T00:55:33;99887.42;;;-7.96;100.00
23899;BME280;20544;50.018;20.010;2024-01-11T00:58:50;99870.17;;;-7.92;100.00
23899;BME280;20544;50.018;20.010;2024-01-11T01:02:08;99879.70;;;-7.96;100.00
23899;BME280;20544;50.018;20.010;2024-01-11T01:05:26;99880.53;;;-7.96;100.00
23899;BME280;20544;50.018;20.010;2024-01-11T01:09:03;99879.75;;;-7.98;100.00
23899;BME280;20544;50.018;20.010;2024-01-11T01:12:40;99885.10;;;-8.07;100.00
23899;BME280;20544;50.018;20.010;2024-01-11T01:15:58;99889.28;;;-8.03;100.00
23899;BME280;20544;50.018;20.010;2024-01-11T01:19:28;99885.29;;;-8.15;100.00
23899;BME280;20544;50.018;20.010;2024-01-11T01:22:47;99875.33;;;-8.30;100.00
23899;BME280;20544;50.018;20.010;2024-01-11T01:26:05;99869.45;;;-8.35;100.00
23899;BME280;20544;50.018;20.010;2024-01-11T01:29:24;99865.16;;;-8.35;100.00
23899;BME280;20544;50.018;20.010;2024-01-11T01:33:01;99866.83;;;-8.32;100.00
23899;BME280;20544;50.018;20.010;2024-01-11T01:36:58;99860.85;;;-8.34;100.00
23899;BME280;20544;50.018;20.010;2024-01-11T01:40:33;99857.30;;;-8.29;100.00
23899;BME280;20544;50.018;20.010;2024-01-11T01:44:08;99860.75;;;-8.30;100.00
23899;BME280;20544;50.018;20.010;2024-01-11T01:47:37;99846.18;;;-8.31;100.00
23899;BME280;20544;50.018;20.010;2024-01-11T01:50:58;99847.79;;;-8.26;100.00
23899;BME280;20544;50.018;20.010;2024-01-11T01:54:16;99850.07;;;-8.14;100.00
23899;BME280;20544;50.018;20.010;2024-01-11T01:57:34;99838.74;;;-8.07;100.00
23899;BME280;20544;50.018;20.010;2024-01-11T02:00:53;99841.13;;;-7.99;100.00
23899;BME280;20544;50.018;20.010;2024-01-11T02:04:17;99845.29;;;-7.93;100.00
23899;BME280;20544;50.018;20.010;2024-01-11T02:07:35;99850.17;;;-7.83;100.00
23899;BME280;20544;50.018;20.010;2024-01-11T02:10:53;99844.82;;;-7.75;100.00
23899;BME280;20544;50.018;20.010;2024-01-11T02:14:12;99834.26;;;-7.66;100.00
23899;BME280;20544;50.018;20.010;2024-01-11T02:17:30;99823.67;;;-7.55;100.00
23899;BME280;20544;50.018;20.010;2024-01-11T02:20:49;99833.81;;;-7.49;100.00
23899;BME280;20544;50.018;20.010;2024-01-11T02:24:10;99831.86;;;-7.40;100.00
23899;BME280;20544;50.018;20.010;2024-01-11T02:27:28;99833.55;;;-7.39;100.00
23899;BME280;20544;50.018;20.010;2024-01-11T02:30:45;99829.26;;;-7.39;100.00
23899;BME280;20544;50.018;20.010;2024-01-11T02:34:03;99828.38;;;-7.38;100.00
23899;BME280;20544;50.018;20.010;2024-01-11T02:37:21;99814.56;;;-7.37;100.00
23899;BME280;20544;50.018;20.010;2024-01-11T02:40:41;99811.75;;;-7.27;100.00
23899;BME280;20544;50.018;20.010;2024-01-11T02:43:59;99811.63;;;-7.23;100.00
23899;BME280;20544;50.018;20.010;2024-01-11T02:47:18;99811.64;;;-7.24;100.00
23899;BME280;20544;50.018;20.010;2024-01-11T02:50:35;99827.93;;;-7.22;100.00
23899;BME280;20544;50.018;20.010;2024-01-11T02:53:53;99813.44;;;-7.26;100.00
23899;BME280;20544;50.018;20.010;2024-01-11T02:57:11;99819.55;;;-7.31;100.00
23899;BME280;20544;50.018;20.010;2024-01-11T03:00:29;99805.90;;;-7.34;100.00
23899;BME280;20544;50.018;20.010;2024-01-11T03:03:56;99822.23;;;-7.34;100.00
23899;BME280;20544;50.018;20.010;2024-01-11T03:08:02;99836.83;;;-7.33;100.00
23899;BME280;20544;50.018;20.010;2024-01-11T03:12:08;99821.69;;;-7.45;100.00
23899;BME280;20544;50.018;20.010;2024-01-11T03:15:26;99821.91;;;-7.53;100.00
23899;BME280;20544;50.018;20.010;2024-01-11T03:18:44;99811.00;;;-7.62;100.00
23899;BME280;20544;50.018;20.010;2024-01-11T03:22:32;99781.19;;;-7.73;100.00
23899;BME280;20544;50.018;20.010;2024-01-11T03:26:24;99791.42;;;-7.70;100.00
23899;BME280;20544;50.018;20.010;2024-01-11T03:29:57;99791.33;;;-7.67;100.00
23899;BME280;20544;50.018;20.010;2024-01-11T03:33:38;99774.98;;;-7.66;100.00
23899;BME280;20544;50.018;20.010;2024-01-11T03:37:10;99791.86;;;-7.54;100.00
23899;BME280;20544;50.018;20.010;2024-01-11T03:40:28;99784.02;;;-7.51;100.00
23899;BME280;20544;50.018;20.010;2024-01-11T03:43:46;99766.74;;;-7.47;100.00
23899;BME280;20544;50.018;20.010;2024-01-11T03:47:04;99759.01;;;-7.47;100.00
23899;BME280;20544;50.018;20.010;2024-01-11T03:50:21;99771.14;;;-7.51;100.00
23899;BME280;20544;50.018;20.010;2024-01-11T03:53:39;99781.16;;;-7.40;100.00
23899;BME280;20544;50.018;20.010;2024-01-11T03:56:57;99771.90;;;-7.47;100.00
23899;BME280;20544;50.018;20.010;2024-01-11T04:00:16;99774.65;;;-7.53;100.00
23899;BME280;20544;50.018;20.010;2024-01-11T04:03:32;99779.04;;;-7.57;100.00
23899;BME280;20544;50.018;20.010;2024-01-11T04:07:01;99788.56;;;-7.59;100.00
23899;BME280;20544;50.018;20.010;2024-01-11T04:10:32;99784.34;;;-7.61;100.00
23899;BME280;20544;50.018;20.010;2024-01-11T04:14:18;99785.84;;;-7.54;100.00
23899;BME280;20544;50.018;20.010;2024-01-11T04:17:42;99791.86;;;-7.54;100.00
23899;BME280;20544;50.018;20.010;2024-01-11T04:21:00;99783.36;;;-7.57;100.00
23899;BME280;20544;50.018;20.010;2024-01-11T04:24:18;99777.56;;;-7.66;100.00
23899;BME280;20544;50.018;20.010;2024-01-11T04:27:36;99775.20;;;-7.73;100.00
23899;BME280;20544;50.018;20.010;2024-01-11T04:30:54;99781.28;;;-7.76;100.00
23899;BME280;20544;50.018;20.010;2024-01-11T04:34:11;99778.16;;;-7.87;100.00
23899;BME280;20544;50.018;20.010;2024-01-11T04:37:30;99763.63;;;-7.90;100.00
23899;BME280;20544;50.018;20.010;2024-01-11T04:40:48;99755.08;;;-7.92;100.00
23899;BME280;20544;50.018;20.010;2024-01-11T04:44:06;99745.76;;;-7.96;100.00
23899;BME280;20544;50.018;20.010;2024-01-11T04:47:24;99735.62;;;-8.02;100.00
23899;BME280;20544;50.018;20.010;2024-01-11T04:50:43;99733.81;;;-7.99;100.00
23899;BME280;20544;50.018;20.010;2024-01-11T04:54:02;99729.58;;;-8.01;100.00
23899;BME280;20544;50.018;20.010;2024-01-11T04:57:20;99726.31;;;-8.08;100.00
23899;BME280;20544;50.018;20.010;2024-01-11T05:00:39;99728.27;;;-8.16;100.00
23899;BME280;20544;50.018;20.010;2024-01-11T05:04:06;99724.94;;;-8.21;100.00
23899;BME280;20544;50.018;20.010;2024-01-11T05:07:22;99714.64;;;-8.21;100.00
23899;BME280;20544;50.018;20.010;2024-01-11T05:10:39;99714.64;;;-8.21;100.00
23899;BME280;20544;50.018;20.010;2024-01-11T05:13:59;99713.03;;;-8.25;100.00
23899;BME280;20544;50.018;20.010;2024-01-11T05:17:17;99702.99;;;-8.35;100.00
23899;BME280;20544;50.018;20.010;2024-01-11T05:20:35;99683.33;;;-8.37;100.00
23899;BME280;20544;50.018;20.010;2024-01-11T05:23:53;99663.67;;;-8.41;100.00
23899;BME280;20544;50.018;20.010;2024-01-11T05:27:10;99664.38;;;-8.35;100.00
23899;BME280;20544;50.018;20.010;2024-01-11T05:30:27;99657.48;;;-8.34;100.00
23899;BME280;20544;50.018;20.010;2024-01-11T05:33:46;99669.22;;;-8.24;100.00
23899;BME280;20544;50.018;20.010;2024-01-11T05:37:04;99673.42;;;-8.20;100.00
23899;BME280;20544;50.018;20.010;2024-01-11T05:40:22;99672.38;;;-8.13;100.00
23899;BME280;20544;50.018;20.010;2024-01-11T05:43:43;99655.02;;;-8.06;100.00
23899;BME280;20544;50.018;20.010;2024-01-11T05:47:00;99667.79;;;-8.03;100.00
23899;BME280;20544;50.018;20.010;2024-01-11T05:50:18;99672.77;;;-7.97;100.00
23899;BME280;20544;50.018;20.010;2024-01-11T05:53:37;99685.66;;;-7.97;100.00
23899;BME280;20544;50.018;20.010;2024-01-11T05:56:54;99707.72;;;-7.86;100.00
23899;BME280;20544;50.018;20.010;2024-01-11T06:00:14;99688.92;;;-7.90;100.00
23899;BME280;20544;50.018;20.010;2024-01-11T06:03:33;99667.26;;;-7.83;100.00
23899;BME280;20544;50.018;20.010;2024-01-11T06:06:51;99656.97;;;-7.84;100.00
23899;BME280;20544;50.018;20.010;2024-01-11T06:10:25;99677.58;;;-7.84;100.00
23899;BME280;20544;50.018;20.010;2024-01-11T06:13:43;99681.78;;;-7.80;100.00
23899;BME280;20544;50.018;20.010;2024-01-11T06:17:06;99701.41;;;-7.76;100.00
23899;BME280;20544;50.018;20.010;2024-01-11T06:20:35;99711.66;;;-7.74;100.00
23899;BME280;20544;50.018;20.010;2024-01-11T06:23:56;99711.72;;;-7.76;100.00
23899;BME280;20544;50.018;20.010;2024-01-11T06:27:16;99707.22;;;-7.69;100.00
23899;BME280;20544;50.018;20.010;2024-01-11T06:30:46;99696.84;;;-7.66;100.00
23899;BME280;20544;50.018;20.010;2024-01-11T06:34:13;99681.98;;;-7.58;100.00
23899;BME280;20544;50.018;20.010;2024-01-11T06:37:31;99674.94;;;-7.51;100.00
23899;BME280;20544;50.018;20.010;2024-01-11T06:40:55;99648.11;;;-7.45;100.00
23899;BME280;20544;50.018;20.010;2024-01-11T06:44:32;99653.78;;;-7.34;100.00
23899;BME280;20544;50.018;20.010;2024-01-11T06:48:35;99642.63;;;-7.35;100.00
23899;BME280;20544;50.018;20.010;2024-01-11T06:52:09;99630.13;;;-7.47;100.00
23899;BME280;20544;50.018;20.010;2024-01-11T06:55:30;99611.52;;;-7.57;100.00
23899;BME280;20544;50.018;20.010;2024-01-11T06:58:54;99574.33;;;-7.76;100.00
23899;BME280;20544;50.018;20.010;2024-01-11T07:02:17;99587.91;;;-7.71;100.00
23899;BME280;20544;50.018;20.010;2024-01-11T07:05:37;99582.52;;;-7.64;100.00
23899;BME280;20544;50.018;20.010;2024-01-11T07:08:56;99586.67;;;-7.59;100.00
23899;BME280;20544;50.018;20.010;2024-01-11T07:12:31;99585.41;;;-7.46;100.00
23899;BME280;20544;50.018;20.010;2024-01-11T07:15:54;99578.98;;;-7.33;100.00
23899;BME280;20544;50.018;20.010;2024-01-11T07:23:41;99565.86;;;-6.74;100.00
23899;BME280;20544;50.018;20.010;2024-01-11T07:26:59;99571.77;;;-6.45;100.00
23899;BME280;20544;50.018;20.010;2024-01-11T07:30:29;99588.55;;;-6.34;100.00
23899;BME280;20544;50.018;20.010;2024-01-11T07:34:01;99591.55;;;-6.21;100.00
23899;BME280;20544;50.018;20.010;2024-01-11T07:37:51;99588.00;;;-5.96;100.00
23899;BME280;20544;50.018;20.010;2024-01-11T07:41:24;99583.84;;;-5.76;100.00
23899;BME280;20544;50.018;20.010;2024-01-11T07:44:57;99585.45;;;-5.74;100.00
23899;BME280;20544;50.018;20.010;2024-01-11T07:49:20;99573.09;;;-5.65;100.00
23899;BME280;20544;50.018;20.010;2024-01-11T07:53:00;99579.93;;;-5.42;100.00
23899;BME280;20544;50.018;20.010;2024-01-11T07:56:26;99572.22;;;-5.22;100.00
23899;BME280;20544;50.018;20.010;2024-01-11T07:59:51;99578.98;;;-4.97;100.00
23899;BME280;20544;50.018;20.010;2024-01-11T08:03:13;99561.71;;;-4.76;100.00
23899;BME280;20544;50.018;20.010;2024-01-11T08:10:14;99555.56;;;-4.73;100.00
23899;BME280;20544;50.018;20.010;2024-01-11T08:13:36;99554.80;;;-4.96;100.00
23899;BME280;20544;50.018;20.010;2024-01-11T08:24:55;99580.73;;;-4.56;100.00
23899;BME280;20544;50.018;20.010;2024-01-11T08:28:16;99572.19;;;-4.58;100.00
23899;BME280;20544;50.018;20.010;2024-01-11T08:32:17;99564.38;;;-4.77;100.00
23899;BME280;20544;50.018;20.010;2024-01-11T08:39:37;99580.02;;;-4.80;100.00
23899;BME280;20544;50.018;20.010;2024-01-11T08:43:34;99572.14;;;-4.77;100.00
23899;BME280;20544;50.018;20.010;2024-01-11T08:47:28;99567.45;;;-4.69;100.00
23899;BME280;20544;50.018;20.010;2024-01-11T08:51:01;99571.02;;;-4.51;100.00
23899;BME280;20544;50.018;20.010;2024-01-11T08:54:44;99572.09;;;-4.36;100.00
23899;BME280;20544;50.018;20.010;2024-01-11T08:58:17;99567.63;;;-4.32;100.00
23899;BME280;20544;50.018;20.010;2024-01-11T09:01:38;99565.47;;;-4.23;100.00
23899;BME280;20544;50.018;20.010;2024-01-11T09:05:53;99566.14;;;-4.19;100.00
23899;BME280;20544;50.018;20.010;2024-01-11T09:13:20;99570.38;;;-4.16;100.00
23899;BME280;20544;50.018;20.010;2024-01-11T09:17:09;99561.34;;;-4.08;100.00
23899;BME280;20544;50.018;20.010;2024-01-11T09:20:31;99573.05;;;-3.99;100.00
23899;BME280;20544;50.018;20.010;2024-01-11T09:24:06;99569.52;;;-3.98;100.00
23899;BME280;20544;50.018;20.010;2024-01-11T09:38:32;99546.08;;;-3.58;100.00
23899;BME280;20544;50.018;20.010;2024-01-11T09:45:46;99505.89;;;-3.49;100.00
23899;BME280;20544;50.018;20.010;2024-01-11T09:49:24;99511.39;;;-3.38;100.00
23899;BME280;20544;50.018;20.010;2024-01-11T09:52:54;99525.53;;;-3.26;100.00
23899;BME280;20544;50.018;20.010;2024-01-11T09:56:23;99522.33;;;-3.14;100.00
23899;BME280;20544;50.018;20.010;2024-01-11T10:00:00;99508.66;;;-3.00;100.00
23899;BME280;20544;50.018;20.010;2024-01-11T10:03:36;99517.42;;;-2.85;100.00
23899;BME280;20544;50.018;20.010;2024-01-11T10:07:05;99515.11;;;-2.73;100.00
23899;BME280;20544;50.018;20.010;2024-01-11T10:10:51;99516.84;;;-2.56;100.00
23899;BME280;20544;50.018;20.010;2024-01-11T10:14:13;99515.43;;;-2.46;100.00
23899;BME280;20544;50.018;20.010;2024-01-11T10:18:02;99512.19;;;-2.34;100.00
23899;BME280;20544;50.018;20.010;2024-01-11T10:21:26;99507.34;;;-2.24;100.00
23899;BME280;20544;50.018;20.010;2024-01-11T10:24:43;99497.38;;;-2.16;100.00
23899;BME280;20544;50.018;20.010;2024-01-11T10:28:15;99486.80;;;-2.13;100.00
23899;BME280;20544;50.018;20.010;2024-01-11T10:31:38;99487.38;;;-2.07;100.00
23899;BME280;20544;50.018;20.010;2024-01-11T10:35:33;99485.30;;;-2.01;100.00
23899;BME280;20544;50.018;20.010;2024-01-11T10:53:44;99466.23;;;-1.85;100.00
23899;BME280;20544;50.018;20.010;2024-01-11T10:57:03;99459.86;;;-1.80;100.00
23899;BME280;20544;50.018;20.010;2024-01-11T11:00:43;99450.47;;;-1.82;100.00
23899;BME280;20544;50.018;20.010;2024-01-11T11:04:22;99431.89;;;-1.76;100.00
23899;BME280;20544;50.018;20.010;2024-01-11T11:07:42;99433.16;;;-1.67;100.00
23899;BME280;20544;50.018;20.010;2024-01-11T11:11:02;99436.99;;;-1.58;100.00
23899;BME280;20544;50.018;20.010;2024-01-11T11:14:20;99427.06;;;-1.52;100.00
23899;BME280;20544;50.018;20.010;2024-01-11T11:17:46;99423.44;;;-1.49;100.00
23899;BME280;20544;50.018;20.010;2024-01-11T11:21:14;99426.04;;;-1.49;100.00
23899;BME280;20544;50.018;20.010;2024-01-11T11:27:59;99413.99;;;-1.36;100.00
23899;BME280;20544;50.018;20.010;2024-01-11T11:31:51;99400.78;;;-1.33;100.00
23899;BME280;20544;50.018;20.010;2024-01-11T11:35:10;99401.44;;;-1.29;100.00
23899;BME280;20544;50.018;20.010;2024-01-11T11:38:30;99386.68;;;-1.28;100.00
23899;BME280;20544;50.018;20.010;2024-01-11T11:41:49;99372.81;;;-1.29;100.00
23899;BME280;20544;50.018;20.010;2024-01-11T11:45:13;99377.65;;;-1.23;100.00
23899;BME280;20544;50.018;20.010;2024-01-11T11:49:35;99375.70;;;-1.19;100.00
23899;BME280;20544;50.018;20.010;2024-01-11T11:53:20;99375.53;;;-1.16;100.00
23899;BME280;20544;50.018;20.010;2024-01-11T11:56:55;99368.65;;;-1.17;100.00
23899;BME280;20544;50.018;20.010;2024-01-11T12:03:49;99357.77;;;-1.09;100.00
23899;BME280;20544;50.018;20.010;2024-01-11T12:07:34;99351.63;;;-1.08;100.00
23899;BME280;20544;50.018;20.010;2024-01-11T12:10:52;99354.60;;;-1.15;100.00
23899;BME280;20544;50.018;20.010;2024-01-11T12:14:09;99357.48;;;-1.05;100.00
23899;BME280;20544;50.018;20.010;2024-01-11T12:17:26;99344.09;;;-0.99;100.00
23899;BME280;20544;50.018;20.010;2024-01-11T12:20:48;99347.42;;;-0.97;100.00
23899;BME280;20544;50.018;20.010;2024-01-11T12:24:06;99331.80;;;-0.97;100.00
23899;BME280;20544;50.018;20.010;2024-01-11T12:27:25;99323.88;;;-0.95;100.00
23899;BME280;20544;50.018;20.010;2024-01-11T12:30:43;99323.88;;;-0.95;100.00
23899;BME280;20544;50.018;20.010;2024-01-11T12:34:28;99326.41;;;-0.93;100.00
23899;BME280;20544;50.018;20.010;2024-01-11T12:37:53;99322.30;;;-0.98;100.00
23899;BME280;20544;50.018;20.010;2024-01-11T12:41:35;99309.86;;;-0.92;100.00
23899;BME280;20544;50.018;20.010;2024-01-11T12:44:51;99302.12;;;-0.94;100.00
23899;BME280;20544;50.018;20.010;2024-01-11T12:48:10;99294.23;;;-0.92;100.00
23899;BME280;20544;50.018;20.010;2024-01-11T12:51:29;99292.55;;;-0.93;100.00
23899;BME280;20544;50.018;20.010;2024-01-11T12:58:23;99276.28;;;-0.97;100.00
23899;BME280;20544;50.018;20.010;2024-01-11T13:01:42;99272.82;;;-0.98;100.00
23899;BME280;20544;50.018;20.010;2024-01-11T13:05:10;99261.96;;;-1.04;100.00
23899;BME280;20544;50.018;20.010;2024-01-11T13:08:37;99282.03;;;-0.92;100.00
23899;BME280;20544;50.018;20.010;2024-01-11T13:11:55;99290.59;;;-0.90;100.00
23899;BME280;20544;50.018;20.010;2024-01-11T13:15:22;99279.97;;;-0.87;100.00
23899;BME280;20544;50.018;20.010;2024-01-11T13:18:39;99279.04;;;-0.86;100.00
23899;BME280;20544;50.018;20.010;2024-01-11T13:21:57;99279.79;;;-0.84;100.00
23899;BME280;20544;50.018;20.010;2024-01-11T13:25:15;99281.37;;;-0.81;100.00
23899;BME280;20544;50.018;20.010;2024-01-11T13:28:33;99264.88;;;-0.82;100.00
23899;BME280;20544;50.018;20.010;2024-01-11T13:31:51;99269.38;;;-0.84;100.00
23899;BME280;20544;50.018;20.010;2024-01-11T13:35:11;99263.31;;;-0.84;100.00
23899;BME280;20544;50.018;20.010;2024-01-11T13:38:29;99271.77;;;-0.81;100.00
23899;BME280;20544;50.018;20.010;2024-01-11T13:41:47;99258.09;;;-0.84;100.00
23899;BME280;20544;50.018;20.010;2024-01-11T13:45:08;99255.05;;;-0.91;100.00
23899;BME280;20544;50.018;20.010;2024-01-11T13:49:01;99260.11;;;-1.02;100.00
23899;BME280;20544;50.018;20.010;2024-01-11T13:53:00;99274.88;;;-1.03;100.00
23899;BME280;20544;50.018;20.010;2024-01-11T13:56:29;99292.19;;;-1.02;100.00
23899;BME280;20544;50.018;20.010;2024-01-11T13:59:57;99282.62;;;-1.01;100.00
23899;BME280;20544;50.018;20.010;2024-01-11T14:08:35;99272.21;;;-1.16;100.00
23899;BME280;20544;50.018;20.010;2024-01-11T14:12:09;99275.09;;;-1.20;100.00
23899;BME280;20544;50.018;20.010;2024-01-11T14:15:41;99280.67;;;-1.26;100.00
23899;BME280;20544;50.018;20.010;2024-01-11T14:19:12;99281.42;;;-1.24;100.00
23899;BME280;20544;50.018;20.010;2024-01-11T14:22:37;99286.73;;;-1.26;100.00
23899;BME280;20544;50.018;20.010;2024-01-11T14:26:11;99293.59;;;-1.25;100.00
23899;BME280;20544;50.018;20.010;2024-01-11T14:29:46;99286.72;;;-1.40;100.00
23899;BME280;20544;50.018;20.010;2024-01-11T14:33:05;99287.11;;;-1.32;100.00
23899;BME280;20544;50.018;20.010;2024-01-11T14:36:24;99275.94;;;-1.34;100.00
23899;BME280;20544;50.018;20.010;2024-01-11T14:39:42;99295.28;;;-1.38;100.00
23899;BME280;20544;50.018;20.010;2024-01-11T14:43:00;99304.94;;;-1.40;100.00
23899;BME280;20544;50.018;20.010;2024-01-11T14:46:19;99311.63;;;-1.36;100.00
23899;BME280;20544;50.018;20.010;2024-01-11T14:49:40;99331.42;;;-1.34;100.00
23899;BME280;20544;50.018;20.010;2024-01-11T14:56:25;99367.86;;;-1.34;100.00
23899;BME280;20544;50.018;20.010;2024-01-11T14:59:54;99368.23;;;-1.40;100.00
23899;BME280;20544;50.018;20.010;2024-01-11T15:03:25;99372.52;;;-1.39;100.00
23899;BME280;20544;50.018;20.010;2024-01-11T15:06:43;99381.17;;;-1.38;100.00
23899;BME280;20544;50.018;20.010;2024-01-11T15:10:01;99373.44;;;-1.40;100.00
23899;BME280;20544;50.018;20.010;2024-01-11T15:13:20;99372.61;;;-1.40;100.00
23899;BME280;20544;50.018;20.010;2024-01-11T15:16:39;99367.20;;;-1.52;100.00
23899;BME280;20544;50.018;20.010;2024-01-11T15:20:06;99360.88;;;-1.62;100.00
23899;BME280;20544;50.018;20.010;2024-01-11T15:23:26;99349.05;;;-1.68;100.00
23899;BME280;20544;50.018;20.010;2024-01-11T15:26:45;99337.02;;;-1.85;100.00
23899;BME280;20544;50.018;20.010;2024-01-11T15:30:19;99346.95;;;-1.91;100.00
23899;BME280;20544;50.018;20.010;2024-01-11T15:33:57;99349.42;;;-2.04;100.00
23899;BME280;20544;50.018;20.010;2024-01-11T15:37:17;99351.11;;;-2.03;100.00
23899;BME280;20544;50.018;20.010;2024-01-11T15:41:24;99344.83;;;-2.15;100.00
23899;BME280;20544;50.018;20.010;2024-01-11T15:44:42;99346.51;;;-2.14;100.00
23899;BME280;20544;50.018;20.010;2024-01-11T15:51:22;99347.30;;;-2.28;100.00
23899;BME280;20544;50.018;20.010;2024-01-11T15:54:41;99341.33;;;-2.30;100.00
23899;BME280;20544;50.018;20.010;2024-01-11T15:58:19;99341.77;;;-2.38;100.00
23899;BME280;20544;50.018;20.010;2024-01-11T16:02:13;99338.75;;;-2.46;100.00
23899;BME280;20544;50.018;20.010;2024-01-11T16:05:30;99348.70;;;-2.38;100.00
23899;BME280;20544;50.018;20.010;2024-01-11T16:08:56;99347.97;;;-2.40;100.00
23899;BME280;20544;50.018;20.010;2024-01-11T16:12:29;99350.82;;;-2.45;100.00
23899;BME280;20544;50.018;20.010;2024-01-11T16:15:47;99355.86;;;-2.58;100.00
23899;BME280;20544;50.018;20.010;2024-01-11T16:19:07;99352.41;;;-2.58;100.00
23899;BME280;20544;50.018;20.010;2024-01-11T16:22:25;99361.55;;;-2.67;100.00
23899;BME280;20544;50.018;20.010;2024-01-11T16:32:18;99347.20;;;-2.74;100.00
23899;BME280;20544;50.018;20.010;2024-01-11T16:35:42;99337.15;;;-2.81;100.00
23899;BME280;20544;50.018;20.010;2024-01-11T16:39:40;99351.67;;;-2.77;100.00
23899;BME280;20544;50.018;20.010;2024-01-11T16:42:59;99345.70;;;-2.79;100.00
23899;BME280;20544;50.018;20.010;2024-01-11T16:46:22;99328.63;;;-2.83;100.00
23899;BME280;20544;50.018;20.010;2024-01-11T16:50:01;99347.39;;;-2.78;100.00
23899;BME280;20544;50.018;20.010;2024-01-11T16:53:21;99332.05;;;-2.82;100.00
23899;BME280;20544;50.018;20.010;2024-01-11T16:56:45;99333.82;;;-2.83;100.00
23899;BME280;20544;50.018;20.010;2024-01-11T17:00:11;99334.56;;;-2.97;100.00
23899;BME280;20544;50.018;20.010;2024-01-11T17:03:30;99331.88;;;-2.95;100.00
23899;BME280;20544;50.018;20.010;2024-01-11T17:06:49;99329.11;;;-2.92;100.00
23899;BME280;20544;50.018;20.010;2024-01-11T17:10:23;99335.48;;;-2.98;100.00
23899;BME280;20544;50.018;20.010;2024-01-11T17:13:40;99335.89;;;-3.05;100.00
23899;BME280;20544;50.018;20.010;2024-01-11T17:17:04;99335.72;;;-3.02;100.00
23899;BME280;20544;50.018;20.010;2024-01-11T17:20:30;99331.02;;;-2.96;100.00
23899;BME280;20544;50.018;20.010;2024-01-11T17:23:51;99333.71;;;-2.97;100.00
23899;BME280;20544;50.018;20.010;2024-01-11T17:27:19;99329.52;;;-3.00;100.00
23899;BME280;20544;50.018;20.010;2024-01-11T17:30:57;99340.77;;;-2.99;100.00
23899;BME280;20544;50.018;20.010;2024-01-11T17:34:22;99340.77;;;-2.99;100.00
23899;BME280;20544;50.018;20.010;2024-01-11T17:37:40;99340.58;;;-2.96;100.00
23899;BME280;20544;50.018;20.010;2024-01-11T17:40:58;99346.87;;;-3.00;100.00
23899;BME280;20544;50.018;20.010;2024-01-11T17:44:16;99351.20;;;-3.01;100.00
23899;BME280;20544;50.018;20.010;2024-01-11T17:47:35;99360.85;;;-3.03;100.00
23899;BME280;20544;50.018;20.010;2024-01-11T17:50:56;99365.36;;;-3.06;100.00
23899;BME280;20544;50.018;20.010;2024-01-11T17:54:14;99368.31;;;-2.97;100.00
23899;BME280;20544;50.018;20.010;2024-01-11T17:57:45;99370.83;;;-2.95;100.00
23899;BME280;20544;50.018;20.010;2024-01-11T18:01:03;99364.04;;;-2.98;100.00
23899;BME280;20544;50.018;20.010;2024-01-11T18:04:26;99363.27;;;-3.00;100.00
23899;BME280;20544;50.018;20.010;2024-01-11T18:07:43;99356.66;;;-3.05;100.00
23899;BME280;20544;50.018;20.010;2024-01-11T18:11:01;99369.96;;;-3.12;100.00
23899;BME280;20544;50.018;20.010;2024-01-11T18:14:20;99366.72;;;-2.99;100.00
23899;BME280;20544;50.018;20.010;2024-01-11T18:17:54;99372.56;;;-3.12;100.00
23899;BME280;20544;50.018;20.010;2024-01-11T18:21:12;99374.16;;;-3.09;100.00
23899;BME280;20544;50.018;20.010;2024-01-11T18:24:34;99374.66;;;-3.02;100.00
23899;BME280;20544;50.018;20.010;2024-01-11T18:28:08;99365.42;;;-3.08;100.00
23899;BME280;20544;50.018;20.010;2024-01-11T18:31:26;99376.42;;;-3.03;100.00
23899;BME280;20544;50.018;20.010;2024-01-11T18:34:44;99364.19;;;-3.01;100.00
23899;BME280;20544;50.018;20.010;2024-01-11T18:38:02;99358.99;;;-3.01;100.00
23899;BME280;20544;50.018;20.010;2024-01-11T18:41:22;99360.77;;;-3.01;100.00
23899;BME280;20544;50.018;20.010;2024-01-11T18:44:52;99357.31;;;-3.02;100.00
23899;BME280;20544;50.018;20.010;2024-01-11T18:48:20;99363.27;;;-3.00;100.00
23899;BME280;20544;50.018;20.010;2024-01-11T18:51:45;99371.92;;;-2.99;100.00
23899;BME280;20544;50.018;20.010;2024-01-11T18:55:17;99352.80;;;-2.98;100.00
23899;BME280;20544;50.018;20.010;2024-01-11T18:58:50;99351.56;;;-2.91;100.00
23899;BME280;20544;50.018;20.010;2024-01-11T19:02:07;99355.01;;;-2.90;100.00
23899;BME280;20544;50.018;20.010;2024-01-11T19:05:27;99362.95;;;-2.94;100.00